Time;durP1;ratioP1;P1;durP2;ratioP2;P2;SDS_P1;SDS_P2;PMS_P1;PMS_P2;Temp;Humidity;BMP_temperature;BMP_pressure;BME280_temperature;BME280_humidity;BME280_pressure;Samples;Min_cycle;Max_cycle;Signal;HPM_P1;HPM_P2
2024/01/18 00:00:27;;;;;;;1.05;0.10;;;-0.20;99.90;;;;;;5073327;28;20045;-50
2024/01/18 00:02:53;;;;;;;1.50;0.20;;;-0.30;99.90;;;;;;5073719;28;20040;-48
2024/01/18 00:05:19;;;;;;;1.48;0.28;;;-0.30;99.90;;;;;;5073668;28;20044;-46
2024/01/18 00:07:44;;;;;;;1.67;0.40;;;-0.30;99.90;;;;;;5073687;28;20048;-47
2024/01/18 00:10:10;;;;;;;1.00;0.20;;;-0.30;99.90;;;;;;5073535;28;20179;-48
2024/01/18 00:12:37;;;;;;;2.40;0.47;;;-0.30;99.90;;;;;;5073639;28;20507;-48
2024/01/18 00:15:03;;;;;;;0.45;0.10;;;-0.30;99.90;;;;;;5073337;28;20128;-47
2024/01/18 00:17:29;;;;;;;1.02;0.20;;;-0.30;99.90;;;;;;5089491;28;20048;-48
2024/01/18 00:19:55;;;;;;;2.53;0.45;;;-0.40;99.90;;;;;;5073415;28;20044;-47
2024/01/18 00:22:20;;;;;;;0.10;0.03;;;-0.40;99.90;;;;;;5073252;28;20071;-45
2024/01/18 00:24:46;;;;;;;1.33;0.20;;;-0.50;99.90;;;;;;5072710;28;20432;-45
2024/01/18 00:27:12;;;;;;;0.60;0.17;;;-0.50;99.90;;;;;;5073421;28;20120;-46
2024/01/18 00:29:37;;;;;;;1.42;0.20;;;-0.50;99.90;;;;;;5072055;28;20040;-45
2024/01/18 00:32:04;;;;;;;2.78;0.20;;;-0.60;99.90;;;;;;5073435;28;20041;-45
2024/01/18 00:34:29;;;;;;;1.88;0.40;;;-0.70;99.90;;;;;;5073590;28;20120;-46
2024/01/18 00:36:55;;;;;;;0.75;0.30;;;-0.70;99.90;;;;;;5073373;28;20486;-45
2024/01/18 00:39:21;;;;;;;2.17;0.43;;;-0.70;99.90;;;;;;5073351;28;20518;-46
2024/01/18 00:41:47;;;;;;;3.42;1.05;;;-0.70;99.90;;;;;;5073303;28;20434;-46
2024/01/18 00:44:14;;;;;;;4.40;1.27;;;-0.70;99.90;;;;;;5073101;28;20044;-45
2024/01/18 00:46:39;;;;;;;10.50;3.78;;;-0.70;99.90;;;;;;5055890;28;20059;-46
2024/01/18 00:49:05;;;;;;;21.42;8.00;;;-0.70;99.90;;;;;;5073221;28;20124;-45
2024/01/18 00:51:31;;;;;;;14.05;5.80;;;-0.70;99.90;;;;;;5073408;28;20075;-46
2024/01/18 00:53:57;;;;;;;6.80;2.35;;;-0.70;99.90;;;;;;5073315;28;20059;-46
2024/01/18 00:56:22;;;;;;;9.38;3.80;;;-0.70;99.90;;;;;;5072069;28;20059;-45
2024/01/18 00:58:49;;;;;;;3.40;1.10;;;-0.70;99.90;;;;;;5072780;28;20492;-46
2024/01/18 01:01:15;;;;;;;3.65;1.10;;;-0.70;99.90;;;;;;5074519;28;20089;-46
2024/01/18 01:03:41;;;;;;;1.75;0.60;;;-0.70;99.90;;;;;;5076654;28;20056;-45
2024/01/18 01:06:10;;;;;;;3.65;0.95;;;-0.70;99.90;;;;;;5076804;28;20377;-46
2024/01/18 01:08:36;;;;;;;2.85;0.80;;;-0.80;99.90;;;;;;5076672;28;20044;-45
2024/01/18 01:11:06;;;;;;;4.63;0.95;;;-0.90;99.90;;;;;;5076603;28;20044;-46
2024/01/18 01:13:32;;;;;;;1.85;0.60;;;-0.80;99.90;;;;;;5076723;28;20048;-45
2024/01/18 01:15:58;;;;;;;3.17;0.63;;;-0.80;99.90;;;;;;5076622;28;20044;-45
2024/01/18 01:18:23;;;;;;;1.65;0.60;;;-0.80;99.90;;;;;;5075783;28;20051;-45
2024/01/18 01:20:49;;;;;;;3.03;0.70;;;-0.80;99.90;;;;;;5076303;28;20079;-45
2024/01/18 01:23:15;;;;;;;1.80;0.70;;;-0.80;99.90;;;;;;5076500;28;20057;-45
2024/01/18 01:25:40;;;;;;;3.53;0.75;;;-0.80;99.90;;;;;;5076342;28;20063;-47
2024/01/18 01:28:06;;;;;;;2.63;0.80;;;-0.90;99.90;;;;;;5076645;28;20071;-45
2024/01/18 01:30:33;;;;;;;4.93;1.00;;;-0.90;99.90;;;;;;5076206;28;20051;-47
2024/01/18 01:32:58;;;;;;;1.88;0.70;;;-0.90;99.90;;;;;;5076304;28;20496;-45
2024/01/18 01:35:24;;;;;;;4.85;0.80;;;-1.00;99.90;;;;;;5076331;28;20079;-46
2024/01/18 01:37:49;;;;;;;2.42;0.60;;;-1.00;99.90;;;;;;5076309;28;20403;-46
2024/01/18 01:40:16;;;;;;;3.53;0.65;;;-1.00;99.90;;;;;;5076052;28;20537;-45
2024/01/18 01:42:42;;;;;;;2.97;0.63;;;-1.00;99.90;;;;;;5076051;28;20558;-50
2024/01/18 01:45:07;;;;;;;2.17;0.52;;;-1.00;99.90;;;;;;5074970;28;20128;-50
2024/01/18 01:47:33;;;;;;;1.45;0.52;;;-1.10;99.90;;;;;;5076485;28;20052;-50
2024/01/18 01:50:00;;;;;;;1.65;0.60;;;-1.00;99.90;;;;;;5076048;28;20055;-47
2024/01/18 01:52:28;;;;;;;3.63;0.73;;;-1.00;99.90;;;;;;5075875;28;20101;-50
2024/01/18 01:54:54;;;;;;;1.33;0.50;;;-1.00;99.90;;;;;;5075851;28;20501;-51
2024/01/18 01:57:20;;;;;;;1.90;0.50;;;-0.90;99.90;;;;;;5075719;28;20096;-50
2024/01/18 01:59:47;;;;;;;5.50;0.63;;;-0.90;99.90;;;;;;5074794;28;20052;-49
2024/01/18 02:02:13;;;;;;;2.63;0.57;;;-0.80;99.90;;;;;;5075798;28;20299;-49
2024/01/18 02:04:40;;;;;;;2.17;0.38;;;-0.80;99.90;;;;;;5075635;28;20145;-49
2024/01/18 02:07:08;;;;;;;4.75;0.50;;;-0.70;99.90;;;;;;5075604;28;20093;-49
2024/01/18 02:09:34;;;;;;;2.33;0.60;;;-0.70;99.90;;;;;;5075604;28;20063;-46
2024/01/18 02:12:01;;;;;;;1.83;0.50;;;-0.70;99.90;;;;;;5075713;28;20052;-46
2024/01/18 02:14:27;;;;;;;3.95;0.75;;;-0.70;99.90;;;;;;5075693;28;20127;-46
2024/01/18 02:16:53;;;;;;;3.25;0.85;;;-0.70;99.90;;;;;;5074525;28;20060;-45
2024/01/18 02:19:19;;;;;;;2.22;0.57;;;-0.70;99.90;;;;;;5075335;28;20094;-46
2024/01/18 02:21:44;;;;;;;1.40;0.38;;;-0.70;99.90;;;;;;5075309;28;20056;-46
2024/01/18 02:24:40;;;;;;;2.17;0.60;;;-0.70;99.90;;;;;;5075307;28;20135;-45
2024/01/18 02:27:06;;;;;;;4.20;0.50;;;-0.70;99.90;;;;;;5073376;28;20052;-45
2024/01/18 02:29:32;;;;;;;1.13;0.40;;;-0.70;99.90;;;;;;5075224;28;20127;-46
2024/01/18 02:31:57;;;;;;;1.48;0.45;;;-0.70;99.90;;;;;;5075219;28;20110;-45
2024/01/18 02:34:23;;;;;;;0.90;0.30;;;-0.70;99.90;;;;;;5075039;28;20044;-45
2024/01/18 02:36:49;;;;;;;2.85;0.43;;;-0.70;99.90;;;;;;5074939;28;20040;-46
2024/01/18 02:39:15;;;;;;;1.60;0.40;;;-0.70;99.90;;;;;;5074968;28;20045;-46
2024/01/18 02:41:41;;;;;;;1.90;0.33;;;-0.70;99.90;;;;;;5075000;28;20044;-46
2024/01/18 02:44:08;;;;;;;5.97;0.60;;;-0.70;99.90;;;;;;5074726;28;20370;-45
2024/01/18 02:46:33;;;;;;;2.08;0.47;;;-0.80;99.90;;;;;;5074902;28;20056;-46
2024/01/18 02:49:00;;;;;;;0.77;0.30;;;-0.80;99.90;;;;;;5074193;28;20048;-46
2024/01/18 02:51:26;;;;;;;2.30;0.28;;;-0.80;99.90;;;;;;5074738;28;20101;-46
2024/01/18 02:53:52;;;;;;;1.67;0.40;;;-0.90;99.90;;;;;;5074773;28;20127;-46
2024/01/18 02:56:17;;;;;;;3.22;0.70;;;-0.90;99.90;;;;;;5074234;28;20040;-45
2024/01/18 02:58:43;;;;;;;2.78;0.50;;;-0.90;99.90;;;;;;5074925;28;20384;-46
2024/01/18 03:01:09;;;;;;;3.80;0.52;;;-0.90;99.90;;;;;;5073361;28;20400;-45
2024/01/18 03:03:35;;;;;;;3.63;0.47;;;-0.90;99.90;;;;;;5073386;28;20048;-45
2024/01/18 03:06:01;;;;;;;0.77;0.30;;;-0.90;99.90;;;;;;5074335;28;20044;-46
2024/01/18 03:08:27;;;;;;;2.87;0.50;;;-1.00;99.90;;;;;;5074596;28;20446;-45
2024/01/18 03:10:52;;;;;;;2.08;0.57;;;-1.00;99.90;;;;;;5074481;28;20044;-45
2024/01/18 03:13:18;;;;;;;3.10;0.47;;;-1.00;99.90;;;;;;5074434;28;20040;-47
2024/01/18 03:15:44;;;;;;;1.50;0.47;;;-1.00;99.90;;;;;;5074473;28;20067;-45
2024/01/18 03:18:10;;;;;;;1.40;0.60;;;-1.10;99.90;;;;;;5074287;28;20114;-46
2024/01/18 03:20:35;;;;;;;1.77;0.30;;;-1.00;99.90;;;;;;5072834;28;20040;-45
2024/01/18 03:23:01;;;;;;;2.65;0.40;;;-1.10;99.90;;;;;;5072368;28;20049;-45
2024/01/18 03:25:27;;;;;;;2.88;0.43;;;-1.10;99.90;;;;;;5073945;28;20060;-45
2024/01/18 03:27:53;;;;;;;1.17;0.25;;;-1.00;99.90;;;;;;5074196;28;20049;-49
2024/01/18 03:30:19;;;;;;;1.98;0.40;;;-1.00;99.90;;;;;;5074011;28;20124;-45
2024/01/18 03:32:46;;;;;;;1.00;0.37;;;-1.00;99.90;;;;;;5074117;28;20044;-46
2024/01/18 03:35:12;;;;;;;1.23;0.30;;;-1.00;99.90;;;;;;5073809;28;20274;-45
2024/01/18 03:37:38;;;;;;;2.50;0.50;;;-1.00;99.90;;;;;;5073100;28;20045;-46
2024/01/18 03:40:05;;;;;;;1.77;0.38;;;-1.00;99.90;;;;;;5073704;28;20044;-45
2024/01/18 03:42:30;;;;;;;;;;;-1.10;99.90;;;;;;5074300;28;20135;-45
2024/01/18 03:44:56;;;;;;;3.45;0.63;;;-1.00;99.90;;;;;;5073665;28;20015;-45
2024/01/18 03:47:22;;;;;;;2.97;0.40;;;-1.00;99.90;;;;;;5073753;28;20076;-45
2024/01/18 03:49:47;;;;;;;3.65;0.47;;;-1.00;99.90;;;;;;5073483;28;20450;-45
2024/01/18 03:52:13;;;;;;;3.28;0.40;;;-1.00;99.90;;;;;;5072550;28;20437;-45
2024/01/18 03:54:41;;;;;;;3.03;0.50;;;-1.00;99.90;;;;;;5072617;28;20427;-46
2024/01/18 03:57:07;;;;;;;1.77;0.50;;;-1.00;99.90;;;;;;5073897;28;20054;-45
2024/01/18 03:59:33;;;;;;;1.95;0.30;;;-1.00;99.90;;;;;;5073500;28;20044;-46
2024/01/18 04:01:58;;;;;;;2.42;0.30;;;-1.00;99.90;;;;;;5073537;28;20079;-45
2024/01/18 04:04:24;;;;;;;1.50;0.35;;;-1.00;99.90;;;;;;5073392;28;20094;-45
2024/01/18 04:06:49;;;;;;;3.22;0.60;;;-1.00;99.90;;;;;;5073706;28;20044;-45
2024/01/18 04:09:15;;;;;;;0.88;0.30;;;-0.90;99.90;;;;;;5073412;28;20056;-46
2024/01/18 04:11:42;;;;;;;1.52;0.30;;;-0.90;99.90;;;;;;5073527;28;20053;-49
2024/01/18 04:14:08;;;;;;;1.02;0.30;;;-0.90;99.90;;;;;;5073603;28;20040;-46
2024/01/18 04:16:34;;;;;;;3.03;0.63;;;-0.90;99.90;;;;;;5072370;28;20135;-48
2024/01/18 04:19:00;;;;;;;1.65;0.30;;;-0.80;99.90;;;;;;5073333;28;20047;-48
2024/01/18 04:21:26;;;;;;;1.35;0.35;;;-0.80;99.90;;;;;;5073758;28;20053;-49
2024/01/18 04:23:52;;;;;;;0.57;0.20;;;-0.80;99.90;;;;;;5074083;28;20051;-50
2024/01/18 04:26:17;;;;;;;0.55;0.20;;;-0.80;99.90;;;;;;5072571;28;20377;-51
2024/01/18 04:28:43;;;;;;;1.27;0.25;;;-0.80;99.90;;;;;;5072148;28;20044;-50
2024/01/18 04:31:09;;;;;;;1.73;0.30;;;-0.70;99.90;;;;;;5073260;28;20051;-50
2024/01/18 04:33:34;;;;;;;3.13;0.40;;;-0.70;99.90;;;;;;5073365;28;20135;-50
2024/01/18 04:36:00;;;;;;;2.28;0.20;;;-0.80;99.90;;;;;;5075992;28;20400;-47
2024/01/18 04:38:26;;;;;;;1.80;0.35;;;-0.80;99.90;;;;;;5077648;28;20044;-48
2024/01/18 04:40:52;;;;;;;0.40;0.17;;;-0.80;99.90;;;;;;5077315;28;20045;-48
2024/01/18 04:43:17;;;;;;;0.98;0.20;;;-0.80;99.90;;;;;;5077400;28;20076;-46
2024/01/18 04:45:43;;;;;;;0.65;0.20;;;-0.80;99.90;;;;;;5077177;28;20477;-46
2024/01/18 04:48:09;;;;;;;3.78;0.43;;;-0.80;99.90;;;;;;5077039;28;20044;-46
2024/01/18 04:50:35;;;;;;;3.40;0.30;;;-0.80;99.90;;;;;;5076912;28;20475;-46
2024/01/18 04:53:00;;;;;;;1.80;0.32;;;-0.90;99.90;;;;;;5077185;28;20049;-47
2024/01/18 04:55:26;;;;;;;3.83;0.40;;;-0.90;99.90;;;;;;5077322;28;20048;-47
2024/01/18 04:57:52;;;;;;;1.50;0.20;;;-0.90;99.90;;;;;;5076981;28;20403;-47
2024/01/18 05:00:18;;;;;;;0.17;0.10;;;-1.00;99.90;;;;;;5076783;28;20033;-46
2024/01/18 05:02:44;;;;;;;1.30;0.30;;;-1.00;99.90;;;;;;5076659;28;20527;-46
2024/01/18 05:05:10;;;;;;;1.15;0.20;;;-1.00;99.90;;;;;;5075902;28;20052;-46
2024/01/18 05:07:42;;;;;;;0.80;0.20;;;-1.00;99.90;;;;;;5077164;28;20197;-46
2024/01/18 05:10:09;;;;;;;0.75;0.20;;;-1.00;99.90;;;;;;5075790;28;20044;-45
2024/01/18 05:12:35;;;;;;;1.85;0.77;;;-1.00;99.90;;;;;;5076623;28;20141;-46
2024/01/18 05:15:02;;;;;;;2.88;0.30;;;-1.00;99.90;;;;;;5076773;28;20048;-46
2024/01/18 05:17:37;;;;;;;;;;;-1.00;99.90;;;;;;5075805;28;20051;-47
2024/01/18 05:20:04;;;;;;;2.03;0.15;;;-1.00;99.90;;;;;;5076587;28;19921;-44
2024/01/18 05:22:31;;;;;;;2.55;0.30;;;-0.90;99.90;;;;;;5076343;28;20095;-44
2024/01/18 05:24:58;;;;;;;2.38;0.35;;;-0.80;99.90;;;;;;5076549;28;20040;-44
2024/01/18 05:27:32;;;;;;;1.42;0.32;;;-0.70;99.90;;;;;;5076397;28;20044;-44
2024/01/18 05:29:58;;;;;;;0.77;0.22;;;-0.60;99.90;;;;;;5076275;28;20048;-44
2024/01/18 05:32:24;;;;;;;1.25;0.10;;;-0.50;99.90;;;;;;5076432;28;20047;-45
2024/01/18 05:34:51;;;;;;;2.20;0.10;;;-0.50;99.90;;;;;;5076288;28;20052;-44
2024/01/18 05:37:17;;;;;;;0.88;0.10;;;-0.40;99.90;;;;;;5076337;28;20083;-44
2024/01/18 05:39:43;;;;;;;0.82;0.10;;;-0.40;99.90;;;;;;5076045;28;20484;-44
2024/01/18 05:42:09;;;;;;;0.50;0.20;;;-0.40;99.90;;;;;;5076142;28;20106;-44
2024/01/18 05:44:35;;;;;;;0.77;0.13;;;-0.50;99.90;;;;;;5076041;28;20040;-44
2024/01/18 05:47:02;;;;;;;0.50;0.05;;;-0.50;99.90;;;;;;5075394;28;20048;-44
2024/01/18 05:49:27;;;;;;;0.40;0.20;;;-0.50;99.90;;;;;;5076164;28;20041;-44
2024/01/18 05:51:53;;;;;;;1.08;0.20;;;-0.50;99.90;;;;;;5075994;28;20403;-44
2024/01/18 05:54:19;;;;;;;1.25;0.10;;;-0.50;99.90;;;;;;5075970;28;20045;-45
2024/01/18 05:56:48;;;;;;;1.70;0.20;;;-0.60;99.90;;;;;;5075983;28;20051;-44
2024/01/18 05:59:14;;;;;;;1.77;0.63;;;-0.60;99.90;;;;;;5075763;28;20045;-45
2024/01/18 06:01:41;;;;;;;3.42;0.20;;;-0.50;99.90;;;;;;5075907;28;20186;-44
2024/01/18 06:04:07;;;;;;;4.10;0.63;;;-0.60;99.90;;;;;;5075779;28;20045;-44
2024/01/18 06:06:32;;;;;;;2.90;0.50;;;-0.50;99.90;;;;;;5075778;28;20047;-45
2024/01/18 06:08:58;;;;;;;0.75;0.17;;;-0.50;99.90;;;;;;5075787;28;20049;-44
2024/01/18 06:11:24;;;;;;;0.85;0.20;;;-0.50;99.90;;;;;;5075581;28;20044;-45
2024/01/18 06:13:50;;;;;;;1.88;0.17;;;-0.60;99.90;;;;;;5075496;28;20503;-44
2024/01/18 06:16:16;;;;;;;1.30;0.22;;;-0.60;99.90;;;;;;5075821;28;20051;-44
2024/01/18 06:18:42;;;;;;;1.25;0.30;;;-0.60;99.90;;;;;;5075488;28;20123;-44
2024/01/18 06:21:09;;;;;;;1.50;0.35;;;-0.60;99.90;;;;;;5075080;28;20107;-46
2024/01/18 06:23:36;;;;;;;0.70;0.30;;;-0.60;99.90;;;;;;5075436;28;20063;-44
2024/01/18 06:26:02;;;;;;;3.45;0.25;;;-0.60;99.90;;;;;;5075562;28;20071;-44
2024/01/18 06:28:27;;;;;;;0.93;0.30;;;-0.70;99.90;;;;;;5074078;28;20041;-45
2024/01/18 06:30:53;;;;;;;2.28;0.30;;;-0.70;99.90;;;;;;5075303;28;20090;-45
2024/01/18 06:33:19;;;;;;;3.60;0.30;;;-0.70;99.90;;;;;;5075169;28;20131;-44
2024/01/18 06:35:45;;;;;;;2.10;0.30;;;-0.70;99.90;;;;;;5075375;28;20052;-44
2024/01/18 06:38:14;;;;;;;0.30;0.10;;;-0.70;99.90;;;;;;5075065;28;20044;-45
2024/01/18 06:40:40;;;;;;;0.88;0.25;;;-0.70;99.90;;;;;;5075071;28;20048;-44
2024/01/18 06:43:06;;;;;;;2.00;0.30;;;-0.80;99.90;;;;;;5074897;28;20472;-45
2024/01/18 06:45:32;;;;;;;2.75;0.20;;;-0.80;99.90;;;;;;5075003;28;20051;-48
2024/01/18 06:47:57;;;;;;;1.85;0.30;;;-0.80;99.90;;;;;;5074895;28;20048;-48
2024/01/18 06:50:23;;;;;;;1.55;0.15;;;-0.80;99.90;;;;;;5075083;28;20045;-49
2024/01/18 06:52:49;;;;;;;3.72;0.68;;;-0.80;99.90;;;;;;5073893;28;20044;-49
2024/01/18 06:55:15;;;;;;;3.45;0.40;;;-0.90;99.90;;;;;;5073578;28;20044;-49
2024/01/18 06:57:40;;;;;;;1.38;0.40;;;-0.90;99.90;;;;;;5074291;28;20056;-48
2024/01/18 07:00:07;;;;;;;2.90;0.30;;;-0.90;99.90;;;;;;5074007;28;20128;-49
2024/01/18 07:02:33;;;;;;;0.73;0.25;;;-0.90;99.90;;;;;;5074651;28;20044;-48
2024/01/18 07:04:59;;;;;;;1.65;0.20;;;-0.90;99.90;;;;;;5074650;28;20045;-50
2024/01/18 07:07:25;;;;;;;2.27;0.20;;;-0.90;99.90;;;;;;5074649;28;20094;-48
2024/01/18 07:09:51;;;;;;;0.63;0.20;;;-0.90;99.90;;;;;;5074538;28;20628;-48
2024/01/18 07:12:17;;;;;;;1.63;0.30;;;-0.80;99.90;;;;;;5074370;28;20049;-46
2024/01/18 07:14:43;;;;;;;1.17;0.10;;;-0.70;99.90;;;;;;5074448;28;20048;-46
2024/01/18 07:17:10;;;;;;;0.57;0.17;;;-0.70;99.90;;;;;;5074452;28;20106;-47
2024/01/18 07:19:36;;;;;;;1.13;0.20;;;-0.70;99.90;;;;;;5074303;28;20044;-48
2024/01/18 07:22:02;;;;;;;1.42;0.20;;;-0.60;99.90;;;;;;5074164;28;20056;-45
2024/01/18 07:24:30;;;;;;;0.93;0.20;;;-0.60;99.90;;;;;;5074234;28;20087;-44
2024/01/18 07:26:57;;;;;;;1.77;0.30;;;-0.60;99.90;;;;;;5074086;28;20045;-44
2024/01/18 07:29:23;;;;;;;0.95;0.20;;;-0.50;99.90;;;;;;5074604;28;20174;-44
2024/01/18 07:31:49;;;;;;;2.97;0.50;;;-0.50;99.90;;;;;;5074257;28;20489;-45
2024/01/18 07:34:16;;;;;;;2.63;0.43;;;-0.40;99.90;;;;;;5074313;28;20129;-44
2024/01/18 07:36:43;;;;;;;7.03;2.33;;;-0.40;99.90;;;;;;5073994;28;20515;-45
2024/01/18 07:39:09;;;;;;;6.78;2.75;;;-0.40;99.90;;;;;;5073802;28;20044;-44
2024/01/18 07:41:35;;;;;;;7.95;2.25;;;-0.40;99.90;;;;;;5073786;28;20044;-45
2024/01/18 07:44:01;;;;;;;1.90;0.63;;;-0.40;99.90;;;;;;5073920;28;20475;-45
2024/01/18 07:46:26;;;;;;;1.52;0.40;;;-0.40;99.90;;;;;;5074301;28;20123;-45
2024/01/18 07:48:52;;;;;;;3.00;0.40;;;-0.40;99.90;;;;;;5074028;28;20553;-45
2024/01/18 07:51:18;;;;;;;1.52;0.40;;;-0.40;99.90;;;;;;5073826;28;20041;-45
2024/01/18 07:53:44;;;;;;;1.10;0.30;;;-0.40;99.90;;;;;;5073677;28;20119;-44
2024/01/18 07:56:11;;;;;;;1.42;0.38;;;-0.40;99.90;;;;;;5073706;28;20044;-44
2024/01/18 07:58:40;;;;;;;3.33;0.47;;;-0.40;99.90;;;;;;5073781;28;20058;-45
2024/01/18 08:01:06;;;;;;;1.40;0.30;;;-0.40;99.90;;;;;;5074076;28;20045;-45
2024/01/18 08:03:32;;;;;;;2.30;0.30;;;-0.40;99.90;;;;;;5073762;28;20099;-45
2024/01/18 08:05:58;;;;;;;1.40;0.40;;;-0.40;99.90;;;;;;5073559;28;20499;-45
2024/01/18 08:08:24;;;;;;;2.38;0.43;;;-0.40;99.90;;;;;;5073701;28;20048;-45
2024/01/18 08:10:49;;;;;;;5.75;0.57;;;-0.40;99.90;;;;;;5072936;28;20124;-44
2024/01/18 08:13:15;;;;;;;4.38;1.63;;;-0.40;99.90;;;;;;5073674;28;20044;-44
2024/01/18 08:15:41;;;;;;;5.70;1.77;;;-0.40;99.90;;;;;;5073596;28;20594;-45
2024/01/18 08:18:07;;;;;;;13.98;5.90;;;-0.40;99.90;;;;;;5073550;28;20044;-46
2024/01/18 08:20:32;;;;;;;11.18;4.93;;;-0.40;99.90;;;;;;5073312;28;20093;-45
2024/01/18 08:22:58;;;;;;;9.80;2.78;;;-0.40;99.90;;;;;;5073213;28;20057;-45
2024/01/18 08:25:24;;;;;;;7.47;1.60;;;-0.40;99.90;;;;;;5072441;28;20514;-46
2024/01/18 08:27:54;;;;;;;12.02;3.22;;;-0.40;99.90;;;;;;5073588;28;20052;-46
2024/01/18 08:30:20;;;;;;;3.10;0.75;;;-0.40;99.90;;;;;;5073434;28;20098;-48
2024/01/18 08:32:46;;;;;;;0.80;0.43;;;-0.30;99.90;;;;;;5072461;28;20044;-48
2024/01/18 08:35:11;;;;;;;4.03;0.63;;;-0.40;99.90;;;;;;5073508;28;20053;-47
2024/01/18 08:37:37;;;;;;;4.30;0.70;;;-0.30;99.90;;;;;;5072556;28;20087;-45
2024/01/18 08:40:04;;;;;;;1.43;0.60;;;-0.30;99.90;;;;;;5071994;28;20530;-46
2024/01/18 08:42:30;;;;;;;2.35;0.57;;;-0.30;99.90;;;;;;5073387;28;20048;-46
2024/01/18 08:44:56;;;;;;;4.13;0.50;;;-0.20;99.90;;;;;;5073302;28;20098;-46
2024/01/18 08:47:22;;;;;;;1.20;0.40;;;-0.30;99.90;;;;;;5072188;28;20044;-46
2024/01/18 08:49:48;;;;;;;4.13;1.07;;;-0.20;99.90;;;;;;5073283;28;20114;-46
2024/01/18 08:52:14;;;;;;;3.58;1.20;;;-0.30;99.90;;;;;;5073209;28;20055;-46
2024/01/18 08:54:42;;;;;;;1.35;0.43;;;-0.30;99.90;;;;;;5071989;28;20504;-45
2024/01/18 08:57:08;;;;;;;1.98;0.47;;;-0.30;99.90;;;;;;5073243;28;20048;-45
2024/01/18 08:59:34;;;;;;;1.15;0.30;;;-0.30;99.90;;;;;;5073032;28;20074;-46
2024/01/18 09:02:00;;;;;;;2.97;0.40;;;-0.30;99.90;;;;;;5073067;28;20067;-45
2024/01/18 09:04:25;;;;;;;1.23;0.25;;;-0.40;99.90;;;;;;5073110;28;20120;-45
2024/01/18 09:06:51;;;;;;;1.10;0.30;;;-0.30;99.90;;;;;;5072991;28;20493;-46
2024/01/18 09:09:17;;;;;;;3.22;0.40;;;-0.30;99.90;;;;;;5073412;28;20055;-45
2024/01/18 09:11:43;;;;;;;4.47;0.55;;;-0.30;99.90;;;;;;5073133;28;20479;-46
2024/01/18 09:14:08;;;;;;;1.40;0.40;;;-0.30;99.90;;;;;;5072923;28;20053;-45
2024/01/18 09:16:34;;;;;;;3.38;0.50;;;-0.30;99.90;;;;;;5073018;28;20126;-45
2024/01/18 09:19:00;;;;;;;0.93;0.40;;;-0.30;99.90;;;;;;5073006;28;20048;-45
2024/01/18 09:21:26;;;;;;;0.90;0.20;;;-0.30;99.90;;;;;;5072750;28;20063;-49
2024/01/18 09:23:52;;;;;;;1.20;0.20;;;-0.30;99.90;;;;;;5075246;28;20087;-48
2024/01/18 09:26:18;;;;;;;1.90;0.40;;;-0.10;99.90;;;;;;5076635;28;20449;-48
2024/01/18 09:28:44;;;;;;;1.70;0.30;;;-0.10;99.90;;;;;;5076569;28;20084;-49
2024/01/18 09:31:11;;;;;;;1.70;0.50;;;-0.10;99.90;;;;;;5076613;28;20044;-49
2024/01/18 09:33:40;;;;;;;2.30;0.45;;;0.00;99.90;;;;;;5076360;28;20048;-49
2024/01/18 09:36:06;;;;;;;1.83;0.40;;;0.00;99.90;;;;;;5076191;28;20044;-49
2024/01/18 09:38:33;;;;;;;3.20;0.53;;;0.10;99.90;;;;;;5076836;28;20458;-49
2024/01/18 09:41:06;;;;;;;1.15;0.43;;;0.20;99.90;;;;;;5076219;28;20044;-49
2024/01/18 09:43:38;;;;;;;1.10;0.30;;;0.20;99.90;;;;;;5076209;28;20575;-49
2024/01/18 09:46:08;;;;;;;0.80;0.32;;;0.30;99.90;;;;;;5076392;28;20083;-46
2024/01/18 09:48:37;;;;;;;2.60;0.30;;;0.40;99.90;;;;;;5075848;28;20498;-45
2024/01/18 09:51:08;;;;;;;2.17;0.30;;;0.50;99.90;;;;;;5076071;28;20517;-46
2024/01/18 09:53:36;;;;;;;1.60;0.30;;;0.70;99.90;;;;;;5076186;28;20128;-45
2024/01/18 09:56:21;;;;;;;4.18;0.85;;;0.80;99.90;;;;;;5076094;28;20044;-45
2024/01/18 09:58:47;;;;;;;3.35;0.40;;;0.90;99.90;;;;;;5075974;28;20048;-45
2024/01/18 10:01:21;;;;;;;1.95;0.30;;;1.10;99.90;;;;;;5075813;28;20040;-45
2024/01/18 10:03:51;;;;;;;1.33;0.55;;;1.10;99.90;;;;;;5076026;28;20048;-45
2024/01/18 10:06:17;;;;;;;0.82;0.10;;;1.10;99.90;;;;;;5074617;28;20049;-45
2024/01/18 10:08:47;;;;;;;0.52;0.22;;;1.00;99.90;;;;;;5075718;28;20045;-47
2024/01/18 10:11:13;;;;;;;3.10;1.35;;;1.00;99.90;;;;;;5075738;28;20578;-49
2024/01/18 10:13:56;;;;;;;0.70;0.45;;;0.80;99.90;;;;;;5075684;28;20176;-45
2024/01/18 10:16:32;;;;;;;1.02;0.20;;;0.80;99.90;;;;;;5075523;28;20052;-45
2024/01/18 10:19:00;;;;;;;0.10;0.10;;;0.80;99.90;;;;;;5074422;28;20048;-45
2024/01/18 10:21:27;;;;;;;0.80;0.10;;;0.80;99.90;;;;;;5075454;28;20064;-45
2024/01/18 10:23:54;;;;;;;0.43;0.10;;;0.80;99.90;;;;;;5075033;28;20052;-45
2024/01/18 10:26:27;;;;;;;;;;;0.80;99.90;;;;;;5075574;28;20395;-45
2024/01/18 10:28:52;;;;;;;1.75;0.32;;;0.80;99.90;;;;;;5075165;28;20375;-44
2024/01/18 10:31:18;;;;;;;1.17;0.43;;;0.80;99.90;;;;;;5075113;28;20045;-44
2024/01/18 10:33:46;;;;;;;0.50;0.20;;;0.80;99.90;;;;;;5074928;28;20049;-44
2024/01/18 10:36:12;;;;;;;0.28;0.10;;;0.80;99.90;;;;;;5075161;28;20059;-44
2024/01/18 10:38:39;;;;;;;0.25;0.10;;;0.80;99.90;;;;;;5075038;28;20041;-44
2024/01/18 10:41:07;;;;;;;0.28;0.10;;;0.80;99.90;;;;;;5074923;28;20480;-45
2024/01/18 10:43:34;;;;;;;0.45;0.10;;;0.90;99.90;;;;;;5074938;28;20076;-44
2024/01/18 10:46:01;;;;;;;1.30;0.20;;;0.90;99.90;;;;;;5075378;28;20079;-45
2024/01/18 10:48:29;;;;;;;3.08;0.20;;;1.00;99.90;;;;;;5074718;28;20052;-44
2024/01/18 10:50:55;;;;;;;0.88;0.10;;;1.00;99.90;;;;;;5074888;28;20048;-45
2024/01/18 10:53:26;;;;;;;1.35;0.08;;;1.00;99.90;;;;;;5074667;28;20071;-44
2024/01/18 10:55:52;;;;;;;0.40;0.10;;;1.10;99.90;;;;;;5074815;28;20118;-44
2024/01/18 10:58:19;;;;;;;0.30;0.10;;;1.10;99.90;;;;;;5074956;28;20040;-45
2024/01/18 11:00:48;;;;;;;0.43;0.17;;;1.20;99.90;;;;;;5074607;28;20541;-44
2024/01/18 11:03:17;;;;;;;0.70;0.20;;;1.30;99.90;;;;;;5073579;28;20056;-45
2024/01/18 11:05:47;;;;;;;1.23;0.30;;;1.30;99.90;;;;;;5074537;28;20056;-44
2024/01/18 11:08:13;;;;;;;0.75;0.20;;;1.30;99.90;;;;;;5074160;28;20075;-45
2024/01/18 11:10:42;;;;;;;3.43;0.23;;;1.30;99.90;;;;;;5074568;28;20060;-44
2024/01/18 11:13:09;;;;;;;0.30;0.20;;;1.40;99.90;;;;;;5074294;28;20055;-44
2024/01/18 11:15:37;;;;;;;1.35;0.20;;;1.40;99.90;;;;;;5074317;28;20040;-45
2024/01/18 11:18:13;;;;;;;0.93;0.20;;;1.40;99.90;;;;;;5073069;28;20480;-45
2024/01/18 11:20:58;;;;;;;0.87;0.20;;;1.40;99.90;;;;;;5074077;28;20518;-45
2024/01/18 11:23:26;;;;;;;2.15;0.40;;;1.40;99.90;;;;;;5074461;28;20135;-45
2024/01/18 11:25:52;;;;;;;1.17;0.25;;;1.40;99.90;;;;;;5074057;28;20540;-45
2024/01/18 11:28:27;;;;;;;1.15;0.10;;;1.40;99.90;;;;;;5073923;28;20091;-45
2024/01/18 11:30:53;;;;;;;3.42;0.30;;;1.50;99.90;;;;;;5073819;28;20049;-45
2024/01/18 11:33:22;;;;;;;2.10;0.20;;;1.50;99.90;;;;;;5073909;28;20048;-46
2024/01/18 11:35:49;;;;;;;1.70;0.30;;;1.50;99.90;;;;;;5073967;28;20094;-45
2024/01/18 11:38:25;;;;;;;2.80;0.20;;;1.60;99.90;;;;;;5074028;28;20512;-45
2024/01/18 11:41:26;;;;;;;2.33;0.40;;;1.60;99.90;;;;;;5073838;28;20045;-45
2024/01/18 11:43:57;;;;;;;2.08;0.20;;;1.60;99.90;;;;;;5074176;28;20045;-45
2024/01/18 11:46:38;;;;;;;0.88;0.13;;;1.70;99.90;;;;;;5073597;28;20044;-45
2024/01/18 11:49:05;;;;;;;0.77;0.20;;;1.70;99.90;;;;;;5073097;28;20087;-45
2024/01/18 11:51:31;;;;;;;0.90;0.10;;;1.70;99.90;;;;;;5073611;28;20193;-45
2024/01/18 11:54:00;;;;;;;0.73;0.20;;;1.70;99.90;;;;;;5073700;28;20056;-45
2024/01/18 11:56:28;;;;;;;1.60;0.22;;;1.80;99.90;;;;;;5073974;28;20052;-45
2024/01/18 11:58:55;;;;;;;;;;;1.80;99.90;;;;;;5074482;28;20102;-45
2024/01/18 12:01:20;;;;;;;1.83;0.25;;;1.80;99.90;;;;;;5073694;28;19920;-46
2024/01/18 12:03:49;;;;;;;1.80;0.10;;;1.80;99.90;;;;;;5072734;28;20059;-46
2024/01/18 12:06:16;;;;;;;1.15;0.32;;;1.90;99.90;;;;;;5073638;28;20048;-46
2024/01/18 12:08:43;;;;;;;;;;;1.80;99.90;;;;;;5073738;28;20495;-46
2024/01/18 12:11:09;;;;;;;1.85;0.30;;;1.90;99.90;;;;;;5073625;28;20418;-48
2024/01/18 12:13:35;;;;;;;0.65;0.20;;;1.90;99.90;;;;;;5073850;28;20040;-49
2024/01/18 12:16:01;;;;;;;1.77;0.20;;;2.00;99.90;;;;;;5073876;28;20412;-49
2024/01/18 12:18:38;;;;;;;0.95;0.40;;;2.00;99.90;;;;;;5073440;28;20056;-49
2024/01/18 12:21:05;;;;;;;2.65;0.40;;;2.10;99.90;;;;;;5073066;28;20103;-47
2024/01/18 12:23:30;;;;;;;3.13;0.50;;;2.00;99.90;;;;;;5073439;28;20461;-49
2024/01/18 12:25:57;;;;;;;1.63;0.57;;;2.10;99.90;;;;;;5072560;28;20123;-49
2024/01/18 12:28:22;;;;;;;1.25;0.47;;;2.10;99.90;;;;;;5073439;28;20048;-46
2024/01/18 12:30:48;;;;;;;2.05;0.40;;;2.10;99.90;;;;;;5073408;28;20127;-45
2024/01/18 12:33:14;;;;;;;1.02;0.40;;;2.10;99.90;;;;;;5073474;28;20098;-45
2024/01/18 12:35:40;;;;;;;4.72;0.85;;;2.10;99.90;;;;;;5073208;28;20052;-49
2024/01/18 12:38:06;;;;;;;1.95;0.63;;;2.10;99.90;;;;;;5073403;28;20044;-47
2024/01/18 12:40:32;;;;;;;3.22;0.40;;;2.20;99.90;;;;;;5073241;28;20044;-45
2024/01/18 12:43:02;;;;;;;2.58;0.45;;;2.20;99.90;;;;;;5073322;28;20415;-47
2024/01/18 12:45:28;;;;;;;2.35;0.55;;;2.20;99.90;;;;;;5073332;28;20426;-46
2024/01/18 12:47:55;;;;;;;2.08;0.50;;;2.20;99.90;;;;;;5073140;28;20122;-49